Time,TemperatureF,DewpointF,PressureIn,WindDirection,WindDirectionDegrees,WindSpeedMPH,WindSpeedGustMPH,Humidity,HourlyPrecipIn,Conditions,Clouds,dailyrainin,SoftwareType,DateUTC
2013-01-25 00:00:00,53.7,52.9,30.22,SW,235,0.0,2.0,97,0.00,,,0.00,Wunderground v.1.15,2013-01-25 06:00:00,
2013-01-25 00:05:00,53.9,53.1,30.22,SW,235,0.0,2.0,97,0.00,,,0.00,Wunderground v.1.15,2013-01-25 06:05:00,
2013-01-25 00:10:00,54.1,53.5,30.22,SW,235,0.0,2.0,98,0.00,,,0.00,Wunderground v.1.15,2013-01-25 06:10:00,
2013-01-25 00:15:00,54.1,53.5,30.22,SW,235,0.0,2.0,98,0.00,,,0.00,Wunderground v.1.15,2013-01-25 06:15:00,
2013-01-25 00:20:00,54.1,53.3,30.22,SW,235,0.0,2.0,97,0.00,,,0.00,Wunderground v.1.15,2013-01-25 06:20:00,
2013-01-25 00:25:00,54.1,53.5,30.22,SW,235,0.0,2.0,98,0.00,,,0.00,Wunderground v.1.15,2013-01-25 06:25:00,
2013-01-25 00:30:00,54.0,53.4,30.22,SW,235,0.0,2.0,98,0.00,,,0.00,Wunderground v.1.15,2013-01-25 06:30:00,
2013-01-25 00:35:00,53.8,53.0,30.22,SW,235,0.0,2.0,97,0.00,,,0.00,Wunderground v.1.15,2013-01-25 06:35:00,
2013-01-25 00:40:00,53.6,52.8,30.22,SW,235,0.0,2.0,97,0.00,,,0.00,Wunderground v.1.15,2013-01-25 06:40:00,
2013-01-25 00:45:00,53.7,53.1,30.22,SW,235,0.0,2.0,98,0.00,,,0.00,Wunderground v.1.15,2013-01-25 06:45:00,
2013-01-25 00:50:00,53.6,53.0,30.22,SW,235,0.0,2.0,98,0.00,,,0.00,Wunderground v.1.15,2013-01-25 06:50:00,
2013-01-25 00:55:00,53.7,53.1,30.22,SW,235,0.0,2.0,98,0.00,,,0.00,Wunderground v.1.15,2013-01-25 06:55:00,
2013-01-25 01:00:00,53.9,53.3,30.22,SW,235,0.0,2.0,98,0.00,,,0.00,Wunderground v.1.15,2013-01-25 07:00:00,
2013-01-25 01:05:00,54.1,53.5,30.22,SW,235,0.0,2.0,98,0.00,,,0.00,Wunderground v.1.15,2013-01-25 07:05:00,
2013-01-25 01:10:00,54.0,53.4,30.22,SW,235,0.0,2.0,98,0.00,,,0.00,Wunderground v.1.15,2013-01-25 07:10:00,
2013-01-25 01:15:00,54.1,53.5,30.22,SW,235,0.0,2.0,98,0.00,,,0.00,Wunderground v.1.15,2013-01-25 07:15:00,
2013-01-25 01:20:00,53.9,53.3,30.22,SW,235,0.0,2.0,98,0.00,,,0.00,Wunderground v.1.15,2013-01-25 07:20:00,
2013-01-25 01:25:00,53.8,53.2,30.22,SW,235,0.0,2.0,98,0.00,,,0.00,Wunderground v.1.15,2013-01-25 07:25:00,
2013-01-25 01:30:00,53.8,53.2,30.22,SW,235,0.0,2.0,98,0.00,,,0.00,Wunderground v.1.15,2013-01-25 07:30:00,
2013-01-25 01:35:00,53.7,53.1,30.22,SW,235,0.0,2.0,98,0.00,,,0.00,Wunderground v.1.15,2013-01-25 07:35:00,
2013-01-25 01:40:00,53.5,52.9,30.22,SW,235,0.0,2.0,98,0.00,,,0.00,Wunderground v.1.15,2013-01-25 07:40:00,
2013-01-25 01:45:00,53.6,53.0,30.21,SW,235,0.0,2.0,98,0.00,,,0.00,Wunderground v.1.15,2013-01-25 07:45:00,
2013-01-25 01:50:00,53.7,53.1,30.21,SW,235,0.0,2.0,98,0.00,,,0.00,Wunderground v.1.15,2013-01-25 07:50:00,
2013-01-25 01:55:00,53.7,53.1,30.21,SW,235,0.0,2.0,98,0.00,,,0.00,Wunderground v.1.15,2013-01-25 07:55:00,
2013-01-25 02:00:00,53.9,53.6,30.21,SW,235,0.0,2.0,99,0.00,,,0.00,Wunderground v.1.15,2013-01-25 08:00:00,
2013-01-25 02:05:00,54.1,53.8,30.21,SE,128,0.0,2.0,99,0.00,,,0.00,Wunderground v.1.15,2013-01-25 08:05:00,
2013-01-25 02:10:00,54.3,54.0,30.21,SE,129,0.0,2.0,99,0.00,,,0.00,Wunderground v.1.15,2013-01-25 08:10:00,
2013-01-25 02:15:00,54.1,53.5,30.20,SE,129,0.0,2.0,98,0.00,,,0.00,Wunderground v.1.15,2013-01-25 08:15:00,
2013-01-25 02:20:00,53.9,53.3,30.21,SE,129,0.0,2.0,98,0.00,,,0.00,Wunderground v.1.15,2013-01-25 08:20:00,
2013-01-25 02:25:00,53.8,53.2,30.21,SE,129,0.0,2.0,98,0.00,,,0.00,Wunderground v.1.15,2013-01-25 08:25:00,
2013-01-25 02:30:00,53.7,53.1,30.21,SE,129,0.0,2.0,98,0.00,,,0.00,Wunderground v.1.15,2013-01-25 08:30:00,
2013-01-25 02:35:00,53.7,53.1,30.20,SE,129,0.0,2.0,98,0.00,,,0.00,Wunderground v.1.15,2013-01-25 08:35:00,
2013-01-25 02:40:00,53.7,53.1,30.20,SE,129,0.0,2.0,98,0.00,,,0.00,Wunderground v.1.15,2013-01-25 08:40:00,
2013-01-25 02:45:00,53.6,53.0,30.20,SE,129,0.0,2.0,98,0.00,,,0.00,Wunderground v.1.15,2013-01-25 08:45:00,
2013-01-25 02:50:00,53.4,52.8,30.20,SE,129,0.0,2.0,98,0.00,,,0.00,Wunderground v.1.15,2013-01-25 08:50:00,
2013-01-25 02:55:00,53.1,52.6,30.20,SE,129,0.0,2.0,98,0.00,,,0.00,Wunderground v.1.15,2013-01-25 08:55:00,
2013-01-25 03:00:00,52.8,52.3,30.20,SE,129,0.0,2.0,98,0.00,,,0.00,Wunderground v.1.15,2013-01-25 09:00:00,
2013-01-25 03:05:00,52.6,52.1,30.20,SE,129,0.0,2.0,98,0.00,,,0.00,Wunderground v.1.15,2013-01-25 09:05:00,
2013-01-25 03:10:00,52.5,52.0,30.20,SE,129,0.0,2.0,98,0.00,,,0.00,Wunderground v.1.15,2013-01-25 09:10:00,
2013-01-25 03:15:00,52.4,51.9,30.20,SE,129,0.0,2.0,98,0.00,,,0.00,Wunderground v.1.15,2013-01-25 09:15:00,
2013-01-25 03:20:00,52.3,51.8,30.20,SE,129,0.0,2.0,98,0.00,,,0.00,Wunderground v.1.15,2013-01-25 09:20:00,
2013-01-25 03:25:00,52.2,51.7,30.20,SE,129,0.0,2.0,98,0.00,,,0.00,Wunderground v.1.15,2013-01-25 09:25:00,
2013-01-25 03:30:00,52.1,51.6,30.20,SE,129,0.0,2.0,98,0.00,,,0.00,Wunderground v.1.15,2013-01-25 09:30:00,
2013-01-25 03:35:00,52.0,51.5,30.20,SE,129,0.0,2.0,98,0.00,,,0.00,Wunderground v.1.15,2013-01-25 09:35:00,
2013-01-25 03:40:00,51.9,51.4,30.20,SE,130,0.0,2.0,98,0.00,,,0.00,Wunderground v.1.15,2013-01-25 09:40:00,
2013-01-25 03:45:00,51.8,51.5,30.20,SE,129,0.0,2.0,99,0.00,,,0.00,Wunderground v.1.15,2013-01-25 09:45:00,
2013-01-25 03:50:00,51.8,51.5,30.20,SE,129,0.0,2.0,99,0.00,,,0.00,Wunderground v.1.15,2013-01-25 09:50:00,
2013-01-25 03:55:00,51.7,51.4,30.20,SE,129,0.0,2.0,99,0.00,,,0.00,Wunderground v.1.15,2013-01-25 09:55:00,
2013-01-25 04:00:00,51.7,51.4,30.20,SE,130,0.0,2.0,99,0.00,,,0.00,Wunderground v.1.15,2013-01-25 10:00:00,
2013-01-25 04:05:00,51.6,51.3,30.20,SE,129,0.0,2.0,99,0.00,,,0.00,Wunderground v.1.15,2013-01-25 10:05:00,
2013-01-25 04:15:00,51.3,51.0,30.20,SE,129,0.0,2.0,99,0.00,,,0.00,Wunderground v.1.15,2013-01-25 10:15:00,
2013-01-25 04:20:00,51.2,50.9,30.20,SE,129,0.0,2.0,99,0.00,,,0.00,Wunderground v.1.15,2013-01-25 10:20:00,
2013-01-25 04:25:00,51.2,50.9,30.20,SE,129,0.0,2.0,99,0.00,,,0.00,Wunderground v.1.15,2013-01-25 10:25:00,
2013-01-25 04:30:00,51.2,50.9,30.20,SE,129,0.0,2.0,99,0.00,,,0.00,Wunderground v.1.15,2013-01-25 10:30:00,
2013-01-25 04:35:00,51.1,50.8,30.20,SE,129,0.0,2.0,99,0.00,,,0.00,Wunderground v.1.15,2013-01-25 10:35:00,
2013-01-25 04:40:00,51.1,50.8,30.21,SE,129,0.0,2.0,99,0.00,,,0.00,Wunderground v.1.15,2013-01-25 10:40:00,
2013-01-25 04:45:00,51.4,51.1,30.21,SE,129,0.0,2.0,99,0.00,,,0.00,Wunderground v.1.15,2013-01-25 10:45:00,
2013-01-25 04:50:00,51.4,51.1,30.21,SE,130,0.0,2.0,99,0.00,,,0.00,Wunderground v.1.15,2013-01-25 10:50:00,
2013-01-25 04:55:00,51.6,51.3,30.21,SE,129,0.0,2.0,99,0.00,,,0.00,Wunderground v.1.15,2013-01-25 10:55:00,
2013-01-25 05:05:00,52.0,51.7,30.21,SE,129,0.0,2.0,99,0.00,,,0.00,Wunderground v.1.15,2013-01-25 11:05:00,
2013-01-25 05:10:00,52.3,52.0,30.21,SE,129,0.0,2.0,99,0.00,,,0.00,Wunderground v.1.15,2013-01-25 11:10:00,
2013-01-25 05:15:00,52.4,52.1,30.21,SE,129,0.0,2.0,99,0.00,,,0.00,Wunderground v.1.15,2013-01-25 11:15:00,
2013-01-25 05:20:00,52.4,52.1,30.21,SE,129,0.0,2.0,99,0.00,,,0.00,Wunderground v.1.15,2013-01-25 11:20:00,
2013-01-25 05:25:00,52.2,51.9,30.21,SE,129,0.0,2.0,99,0.00,,,0.00,Wunderground v.1.15,2013-01-25 11:25:00,
2013-01-25 05:30:00,52.0,51.7,30.21,SE,129,0.0,2.0,99,0.00,,,0.00,Wunderground v.1.15,2013-01-25 11:30:00,
2013-01-25 05:35:00,51.8,51.5,30.21,SE,129,0.0,2.0,99,0.00,,,0.00,Wunderground v.1.15,2013-01-25 11:35:00,
2013-01-25 05:40:00,51.8,51.5,30.21,SE,129,0.0,2.0,99,0.00,,,0.00,Wunderground v.1.15,2013-01-25 11:40:00,
2013-01-25 05:50:00,52.0,51.7,30.21,SE,129,0.0,2.0,99,0.00,,,0.00,Wunderground v.1.15,2013-01-25 11:50:00,
2013-01-25 05:55:00,52.0,51.7,30.21,SE,130,0.0,2.0,99,0.00,,,0.00,Wunderground v.1.15,2013-01-25 11:55:00,
2013-01-25 06:00:00,51.8,51.5,30.21,SE,129,0.0,2.0,99,0.00,,,0.00,Wunderground v.1.15,2013-01-25 12:00:00,
2013-01-25 06:05:00,51.6,51.3,30.20,SE,128,0.0,2.0,99,0.00,,,0.00,Wunderground v.1.15,2013-01-25 12:05:00,
2013-01-25 06:10:00,52.1,51.8,30.20,ESE,120,1.0,1.0,99,0.00,,,0.00,Wunderground v.1.15,2013-01-25 12:10:00,
2013-01-25 06:15:00,52.0,51.7,30.20,ESE,121,1.0,2.0,99,0.00,,,0.00,Wunderground v.1.15,2013-01-25 12:15:00,
2013-01-25 06:20:00,51.9,51.6,30.20,ESE,121,0.0,2.0,99,0.00,,,0.00,Wunderground v.1.15,2013-01-25 12:20:00,
2013-01-25 06:25:00,52.1,51.8,30.20,ESE,118,0.0,2.0,99,0.00,,,0.00,Wunderground v.1.15,2013-01-25 12:25:00,
2013-01-25 06:30:00,52.4,52.1,30.20,ESE,120,0.0,2.0,99,0.00,,,0.00,Wunderground v.1.15,2013-01-25 12:30:00,
2013-01-25 06:35:00,52.2,51.9,30.20,ESE,120,0.0,2.0,99,0.00,,,0.00,Wunderground v.1.15,2013-01-25 12:35:00,
2013-01-25 06:40:00,52.1,51.8,30.20,ESE,120,0.0,2.0,99,0.00,,,0.00,Wunderground v.1.15,2013-01-25 12:40:00,
2013-01-25 06:45:00,52.4,52.1,30.20,ESE,120,0.0,2.0,99,0.00,,,0.00,Wunderground v.1.15,2013-01-25 12:45:00,
2013-01-25 06:50:00,52.6,52.3,30.21,ESE,120,0.0,2.0,99,0.00,,,0.00,Wunderground v.1.15,2013-01-25 12:50:00,
2013-01-25 06:55:00,52.5,52.2,30.21,ESE,120,0.0,2.0,99,0.00,,,0.00,Wunderground v.1.15,2013-01-25 12:55:00,
2013-01-25 07:00:00,52.4,52.1,30.21,ESE,120,0.0,2.0,99,0.00,,,0.00,Wunderground v.1.15,2013-01-25 13:00:00,
2013-01-25 07:05:00,52.4,52.1,30.21,ESE,120,0.0,2.0,99,0.00,,,0.00,Wunderground v.1.15,2013-01-25 13:05:00,
2013-01-25 07:10:00,52.2,51.9,30.21,ESE,120,0.0,2.0,99,0.00,,,0.00,Wunderground v.1.15,2013-01-25 13:10:00,
2013-01-25 07:15:00,52.3,52.0,30.21,ESE,120,0.0,2.0,99,0.00,,,0.00,Wunderground v.1.15,2013-01-25 13:15:00,
2013-01-25 07:25:00,52.5,52.2,30.22,ESE,120,0.0,2.0,99,0.00,,,0.00,Wunderground v.1.15,2013-01-25 13:25:00,
2013-01-25 07:30:00,52.9,52.6,30.22,ESE,120,0.0,2.0,99,0.00,,,0.00,Wunderground v.1.15,2013-01-25 13:30:00,
2013-01-25 07:35:00,53.4,53.4,30.22,ESE,120,0.0,2.0,100,0.00,,,0.00,Wunderground v.1.15,2013-01-25 13:35:00,
2013-01-25 07:40:00,53.8,53.8,30.22,ESE,119,0.0,2.0,100,0.00,,,0.00,Wunderground v.1.15,2013-01-25 13:40:00,
2013-01-25 07:45:00,53.8,53.8,30.22,ESE,119,0.0,2.0,100,0.00,,,0.00,Wunderground v.1.15,2013-01-25 13:45:00,
2013-01-25 07:50:00,54.1,54.1,30.22,ESE,118,0.0,2.0,100,0.00,,,0.00,Wunderground v.1.15,2013-01-25 13:50:00,
2013-01-25 07:55:00,54.6,54.6,30.22,ESE,119,0.0,2.0,100,0.00,,,0.00,Wunderground v.1.15,2013-01-25 13:55:00,
2013-01-25 08:00:00,55.5,55.5,30.22,ESE,118,0.0,2.0,100,0.00,,,0.00,Wunderground v.1.15,2013-01-25 14:00:00,
2013-01-25 08:05:00,56.9,56.9,30.22,ESE,119,0.0,2.0,100,0.00,,,0.00,Wunderground v.1.15,2013-01-25 14:05:00,
2013-01-25 08:10:00,57.7,57.7,30.22,ESE,118,0.0,2.0,100,0.00,,,0.00,Wunderground v.1.15,2013-01-25 14:10:00,
2013-01-25 08:15:00,58.2,58.2,30.22,ESE,120,0.0,2.0,100,0.00,,,0.00,Wunderground v.1.15,2013-01-25 14:15:00,
2013-01-25 08:20:00,58.8,58.8,30.23,SW,225,0.0,2.0,100,0.00,,,0.00,Wunderground v.1.15,2013-01-25 14:20:00,
2013-01-25 08:25:00,60.2,60.2,30.22,SSE,150,0.0,2.0,100,0.00,,,0.00,Wunderground v.1.15,2013-01-25 14:25:00,
2013-01-25 08:30:00,60.7,60.7,30.22,SSE,153,0.0,2.0,100,0.00,,,0.00,Wunderground v.1.15,2013-01-25 14:30:00,
2013-01-25 08:35:00,61.4,61.4,30.22,ESE,121,0.0,2.0,100,0.00,,,0.00,Wunderground v.1.15,2013-01-25 14:35:00,
2013-01-25 08:40:00,62.5,62.2,30.22,SSE,160,0.0,2.0,99,0.00,,,0.00,Wunderground v.1.15,2013-01-25 14:40:00,
2013-01-25 08:45:00,63.5,61.7,30.23,ESE,119,1.0,2.0,94,0.00,,,0.00,Wunderground v.1.15,2013-01-25 14:45:00,
2013-01-25 08:50:00,64.7,61.7,30.23,SSE,150,1.0,2.0,90,0.00,,,0.00,Wunderground v.1.15,2013-01-25 14:50:00,
2013-01-25 08:55:00,65.7,61.7,30.23,SSE,161,1.0,2.0,87,0.00,,,0.00,Wunderground v.1.15,2013-01-25 14:55:00,
2013-01-25 09:00:00,66.9,61.2,30.23,SW,229,1.0,1.0,82,0.00,,,0.00,Wunderground v.1.15,2013-01-25 15:00:00,
2013-01-25 09:05:00,67.6,60.5,30.23,SSW,197,1.0,2.0,78,0.00,,,0.00,Wunderground v.1.15,2013-01-25 15:05:00,
2013-01-25 09:10:00,68.3,60.4,30.23,SW,225,1.0,2.0,76,0.00,,,0.00,Wunderground v.1.15,2013-01-25 15:10:00,
2013-01-25 09:15:00,68.8,60.9,30.23,SSW,210,1.0,2.0,76,0.00,,,0.00,Wunderground v.1.15,2013-01-25 15:15:00,
2013-01-25 09:20:00,69.1,60.8,30.24,SSW,205,1.0,2.0,75,0.00,,,0.00,Wunderground v.1.15,2013-01-25 15:20:00,
2013-01-25 09:25:00,69.3,60.3,30.23,SSW,203,1.0,2.0,73,0.00,,,0.00,Wunderground v.1.15,2013-01-25 15:25:00,
2013-01-25 09:35:00,69.0,60.4,30.24,SE,137,1.0,2.0,74,0.00,,,0.00,Wunderground v.1.15,2013-01-25 15:35:00,
2013-01-25 09:40:00,68.8,60.2,30.23,SSE,160,1.0,2.0,74,0.00,,,0.00,Wunderground v.1.15,2013-01-25 15:40:00,
2013-01-25 09:45:00,68.9,60.6,30.24,SW,232,1.0,2.0,75,0.00,,,0.00,Wunderground v.1.15,2013-01-25 15:45:00,
2013-01-25 09:50:00,69.1,60.5,30.23,South,179,1.0,2.0,74,0.00,,,0.00,Wunderground v.1.15,2013-01-25 15:50:00,
2013-01-25 09:55:00,69.5,60.5,30.23,SW,222,1.0,2.0,73,0.00,,,0.00,Wunderground v.1.15,2013-01-25 15:55:00,
2013-01-25 10:00:00,69.7,60.7,30.24,SW,232,1.0,3.0,73,0.00,,,0.00,Wunderground v.1.15,2013-01-25 16:00:00,
2013-01-25 10:05:00,69.7,60.7,30.24,WSW,255,2.0,3.0,73,0.00,,,0.00,Wunderground v.1.15,2013-01-25 16:05:00,
2013-01-25 10:10:00,69.7,60.7,30.24,WSW,252,2.0,2.0,73,0.00,,,0.00,Wunderground v.1.15,2013-01-25 16:10:00,
2013-01-25 10:15:00,69.9,60.5,30.24,WSW,238,2.0,3.0,72,0.00,,,0.00,Wunderground v.1.15,2013-01-25 16:15:00,
2013-01-25 10:20:00,70.2,60.7,30.24,West,272,1.0,2.0,72,0.00,,,0.00,Wunderground v.1.15,2013-01-25 16:20:00,
2013-01-25 10:25:00,70.0,60.9,30.24,South,180,2.0,2.0,73,0.00,,,0.00,Wunderground v.1.15,2013-01-25 16:25:00,
2013-01-25 10:30:00,70.2,60.7,30.24,West,276,2.0,2.0,72,0.00,,,0.00,Wunderground v.1.15,2013-01-25 16:30:00,
2013-01-25 10:35:00,69.9,60.5,30.24,West,278,1.0,2.0,72,0.00,,,0.00,Wunderground v.1.15,2013-01-25 16:35:00,
2013-01-25 10:40:00,70.0,60.9,30.24,SE,129,1.0,3.0,73,0.00,,,0.00,Wunderground v.1.15,2013-01-25 16:40:00,
2013-01-25 10:45:00,70.1,61.0,30.24,WSW,240,2.0,3.0,73,0.00,,,0.00,Wunderground v.1.15,2013-01-25 16:45:00,
2013-01-25 10:50:00,70.3,61.2,30.23,SSW,210,1.0,2.0,73,0.00,,,0.00,Wunderground v.1.15,2013-01-25 16:50:00,
2013-01-25 10:55:00,70.8,61.3,30.23,SSW,205,1.0,2.0,72,0.00,,,0.00,Wunderground v.1.15,2013-01-25 16:55:00,
2013-01-25 11:00:00,71.2,61.3,30.22,SSE,148,1.0,2.0,71,0.00,,,0.00,Wunderground v.1.15,2013-01-25 17:00:00,
2013-01-25 11:05:00,71.4,61.5,30.22,South,190,1.0,2.0,71,0.00,,,0.00,Wunderground v.1.15,2013-01-25 17:05:00,
2013-01-25 11:10:00,71.7,61.0,30.22,East,87,2.0,3.0,69,0.00,,,0.00,Wunderground v.1.15,2013-01-25 17:10:00,
2013-01-25 11:15:00,72.1,61.0,30.22,SW,229,2.0,3.0,68,0.00,,,0.00,Wunderground v.1.15,2013-01-25 17:15:00,
2013-01-25 11:20:00,72.6,61.4,30.22,SE,131,2.0,2.0,68,0.00,,,0.00,Wunderground v.1.15,2013-01-25 17:20:00,
2013-01-25 11:25:00,72.6,60.6,30.21,SSE,163,2.0,2.0,66,0.00,,,0.00,Wunderground v.1.15,2013-01-25 17:25:00,
2013-01-25 11:30:00,72.2,60.6,30.21,SSE,153,2.0,2.0,67,0.00,,,0.00,Wunderground v.1.15,2013-01-25 17:30:00,
2013-01-25 11:35:00,71.9,60.3,30.21,SSW,195,1.0,2.0,67,0.00,,,0.00,Wunderground v.1.15,2013-01-25 17:35:00,
2013-01-25 11:40:00,72.2,60.6,30.20,South,185,2.0,3.0,67,0.00,,,0.00,Wunderground v.1.15,2013-01-25 17:40:00,
2013-01-25 11:45:00,72.7,60.7,30.20,SW,221,2.0,3.0,66,0.00,,,0.00,Wunderground v.1.15,2013-01-25 17:45:00,
2013-01-25 11:50:00,73.1,61.1,30.20,SW,221,1.0,2.0,66,0.00,,,0.00,Wunderground v.1.15,2013-01-25 17:50:00,
2013-01-25 11:55:00,73.4,61.3,30.19,SSW,200,1.0,2.0,66,0.00,,,0.00,Wunderground v.1.15,2013-01-25 17:55:00,
2013-01-25 12:00:00,74.0,61.0,30.19,SW,225,1.0,2.0,64,0.00,,,0.00,Wunderground v.1.15,2013-01-25 18:00:00,
2013-01-25 12:05:00,73.8,60.9,30.19,West,280,2.0,2.0,64,0.00,,,0.00,Wunderground v.1.15,2013-01-25 18:05:00,
2013-01-25 12:10:00,73.6,60.7,30.19,SW,221,3.0,3.0,64,0.00,,,0.00,Wunderground v.1.15,2013-01-25 18:10:00,
2013-01-25 12:15:00,74.0,61.0,30.18,WNW,285,2.0,3.0,64,0.00,,,0.00,Wunderground v.1.15,2013-01-25 18:15:00,
2013-01-25 12:20:00,74.1,61.1,30.18,WSW,248,2.0,6.0,64,0.00,,,0.00,Wunderground v.1.15,2013-01-25 18:20:00,
2013-01-25 12:25:00,74.0,61.0,30.17,WSW,246,2.0,7.0,64,0.00,,,0.00,Wunderground v.1.15,2013-01-25 18:25:00,
2013-01-25 12:30:00,74.0,60.6,30.17,SW,236,3.0,3.0,63,0.00,,,0.00,Wunderground v.1.15,2013-01-25 18:30:00,
2013-01-25 12:35:00,74.4,61.4,30.17,SSW,210,2.0,3.0,64,0.00,,,0.00,Wunderground v.1.15,2013-01-25 18:35:00,
2013-01-25 12:40:00,74.9,61.5,30.17,West,269,2.0,3.0,63,0.00,,,0.00,Wunderground v.1.15,2013-01-25 18:40:00,
2013-01-25 12:45:00,74.6,61.2,30.17,SW,225,3.0,3.0,63,0.00,,,0.00,Wunderground v.1.15,2013-01-25 18:45:00,
2013-01-25 12:50:00,74.8,61.4,30.16,East,92,3.0,4.0,63,0.00,,,0.00,Wunderground v.1.15,2013-01-25 18:50:00,
2013-01-25 12:55:00,75.2,61.7,30.17,South,187,2.0,4.0,63,0.00,,,0.00,Wunderground v.1.15,2013-01-25 18:55:00,
2013-01-25 13:00:00,75.4,61.9,30.16,West,276,2.0,2.0,63,0.00,,,0.00,Wunderground v.1.15,2013-01-25 19:00:00,
2013-01-25 13:05:00,75.1,61.6,30.16,SW,222,2.0,2.0,63,0.00,,,0.00,Wunderground v.1.15,2013-01-25 19:05:00,
2013-01-25 13:10:00,75.4,61.5,30.16,SSE,149,2.0,2.0,62,0.00,,,0.00,Wunderground v.1.15,2013-01-25 19:10:00,
2013-01-25 13:15:00,75.0,61.1,30.16,WNW,296,2.0,2.0,62,0.00,,,0.00,Wunderground v.1.15,2013-01-25 19:15:00,
2013-01-25 13:20:00,75.7,61.8,30.15,SE,129,2.0,2.0,62,0.00,,,0.00,Wunderground v.1.15,2013-01-25 19:20:00,
2013-01-25 13:25:00,76.3,61.4,30.16,West,263,1.0,2.0,60,0.00,,,0.00,Wunderground v.1.15,2013-01-25 19:25:00,
2013-01-25 13:30:00,75.9,61.0,30.15,West,266,2.0,2.0,60,0.00,,,0.00,Wunderground v.1.15,2013-01-25 19:30:00,
2013-01-25 13:35:00,75.4,61.5,30.15,WSW,249,2.0,3.0,62,0.00,,,0.00,Wunderground v.1.15,2013-01-25 19:35:00,
2013-01-25 13:40:00,75.1,61.6,30.15,West,259,2.0,4.0,63,0.00,,,0.00,Wunderground v.1.15,2013-01-25 19:40:00,
2013-01-25 13:45:00,75.1,61.6,30.15,WNW,296,2.0,4.0,63,0.00,,,0.00,Wunderground v.1.15,2013-01-25 19:45:00,
2013-01-25 13:50:00,75.5,61.1,30.14,WSW,245,2.0,2.0,61,0.00,,,0.00,Wunderground v.1.15,2013-01-25 19:50:00,
2013-01-25 13:55:00,75.3,60.9,30.15,WSW,253,2.0,4.0,61,0.00,,,0.00,Wunderground v.1.15,2013-01-25 19:55:00,
2013-01-25 14:00:00,74.9,61.5,30.14,West,264,3.0,5.0,63,0.00,,,0.00,Wunderground v.1.15,2013-01-25 20:00:00,
2013-01-25 14:05:00,74.7,61.3,30.14,SW,236,3.0,5.0,63,0.00,,,0.00,Wunderground v.1.15,2013-01-25 20:05:00,
2013-01-25 14:10:00,74.4,61.0,30.14,SW,234,3.0,3.0,63,0.00,,,0.00,Wunderground v.1.15,2013-01-25 20:10:00,
2013-01-25 14:15:00,74.6,60.7,30.14,WSW,252,2.0,4.0,62,0.00,,,0.00,Wunderground v.1.15,2013-01-25 20:15:00,
2013-01-25 14:20:00,74.8,61.4,30.14,South,169,2.0,2.0,63,0.00,,,0.00,Wunderground v.1.15,2013-01-25 20:20:00,
2013-01-25 14:25:00,75.3,61.4,30.15,South,176,2.0,2.0,62,0.00,,,0.00,Wunderground v.1.15,2013-01-25 20:25:00,
2013-01-25 14:30:00,75.6,61.7,30.15,West,269,2.0,2.0,62,0.00,,,0.00,Wunderground v.1.15,2013-01-25 20:30:00,
2013-01-25 14:40:00,75.5,61.6,30.14,SSE,165,2.0,2.0,62,0.00,,,0.00,Wunderground v.1.15,2013-01-25 20:40:00,
2013-01-25 14:45:00,76.0,61.1,30.14,WSW,248,1.0,2.0,60,0.00,,,0.00,Wunderground v.1.15,2013-01-25 20:45:00,
2013-01-25 14:50:00,75.8,60.9,30.14,WNW,297,2.0,6.0,60,0.00,,,0.00,Wunderground v.1.15,2013-01-25 20:50:00,
2013-01-25 14:55:00,75.3,60.9,30.14,SW,221,3.0,6.0,61,0.00,,,0.00,Wunderground v.1.15,2013-01-25 20:55:00,
2013-01-25 15:00:00,75.1,61.2,30.14,SSW,210,2.0,2.0,62,0.00,,,0.00,Wunderground v.1.15,2013-01-25 21:00:00,
2013-01-25 15:05:00,75.3,61.4,30.13,WSW,238,1.0,2.0,62,0.00,,,0.00,Wunderground v.1.15,2013-01-25 21:05:00,
2013-01-25 15:10:00,75.7,60.8,30.13,South,185,1.0,2.0,60,0.00,,,0.00,Wunderground v.1.15,2013-01-25 21:10:00,
2013-01-25 15:15:00,75.4,60.5,30.13,WNW,287,2.0,2.0,60,0.00,,,0.00,Wunderground v.1.15,2013-01-25 21:15:00,
2013-01-25 15:20:00,74.5,60.6,30.13,SSE,152,2.0,2.0,62,0.00,,,0.00,Wunderground v.1.15,2013-01-25 21:20:00,
2013-01-25 15:25:00,74.4,61.0,30.13,WSW,248,1.0,2.0,63,0.00,,,0.00,Wunderground v.1.15,2013-01-25 21:25:00,
2013-01-25 15:30:00,74.7,61.3,30.13,West,269,2.0,2.0,63,0.00,,,0.00,Wunderground v.1.15,2013-01-25 21:30:00,
2013-01-25 15:35:00,75.2,61.3,30.13,SSW,200,2.0,3.0,62,0.00,,,0.00,Wunderground v.1.15,2013-01-25 21:35:00,
2013-01-25 15:40:00,74.7,60.8,30.13,SSW,207,2.0,2.0,62,0.00,,,0.00,Wunderground v.1.15,2013-01-25 21:40:00,
2013-01-25 15:45:00,73.9,61.0,30.13,SW,231,2.0,2.0,64,0.00,,,0.00,Wunderground v.1.15,2013-01-25 21:45:00,
2013-01-25 15:50:00,73.9,61.4,30.13,SSW,203,1.0,2.0,65,0.00,,,0.00,Wunderground v.1.15,2013-01-25 21:50:00,
2013-01-25 15:55:00,74.3,60.9,30.13,WSW,242,1.0,3.0,63,0.00,,,0.00,Wunderground v.1.15,2013-01-25 21:55:00,
2013-01-25 16:00:00,74.0,61.0,30.13,ESE,102,2.0,2.0,64,0.00,,,0.00,Wunderground v.1.15,2013-01-25 22:00:00,
2013-01-25 16:05:00,73.5,60.6,30.13,WNW,286,2.0,2.0,64,0.00,,,0.00,Wunderground v.1.15,2013-01-25 22:05:00,
2013-01-25 16:10:00,73.3,60.8,30.13,SW,231,2.0,3.0,65,0.00,,,0.00,Wunderground v.1.15,2013-01-25 22:10:00,
2013-01-25 16:15:00,73.0,61.0,30.13,WNW,293,2.0,7.0,66,0.00,,,0.00,Wunderground v.1.15,2013-01-25 22:15:00,
2013-01-25 16:20:00,72.6,60.6,30.13,West,260,2.0,3.0,66,0.00,,,0.00,Wunderground v.1.15,2013-01-25 22:20:00,
2013-01-25 16:25:00,72.4,60.8,30.13,WNW,284,2.0,3.0,67,0.00,,,0.00,Wunderground v.1.15,2013-01-25 22:25:00,
2013-01-25 16:30:00,72.2,60.6,30.13,SW,226,2.0,2.0,67,0.00,,,0.00,Wunderground v.1.15,2013-01-25 22:30:00,
2013-01-25 16:35:00,72.0,60.9,30.13,SW,232,1.0,2.0,68,0.00,,,0.00,Wunderground v.1.15,2013-01-25 22:35:00,
2013-01-25 16:40:00,71.8,60.7,30.13,SW,231,1.0,2.0,68,0.00,,,0.00,Wunderground v.1.15,2013-01-25 22:40:00,
2013-01-25 16:45:00,71.5,60.4,30.13,SW,226,1.0,2.0,68,0.00,,,0.00,Wunderground v.1.15,2013-01-25 22:45:00,
2013-01-25 16:50:00,71.2,60.1,30.13,West,270,1.0,2.0,68,0.00,,,0.00,Wunderground v.1.15,2013-01-25 22:50:00,
2013-01-25 16:55:00,71.1,60.4,30.13,West,277,2.0,2.0,69,0.00,,,0.00,Wunderground v.1.15,2013-01-25 22:55:00,
2013-01-25 17:05:00,70.5,60.2,30.13,SSE,162,1.0,2.0,70,0.00,,,0.00,Wunderground v.1.15,2013-01-25 23:05:00,
2013-01-25 17:10:00,70.3,60.1,30.13,SSW,204,1.0,1.0,70,0.00,,,0.00,Wunderground v.1.15,2013-01-25 23:10:00,
2013-01-25 17:15:00,70.0,60.2,30.13,South,188,1.0,2.0,71,0.00,,,0.00,Wunderground v.1.15,2013-01-25 23:15:00,
2013-01-25 17:20:00,69.7,59.9,30.13,SSW,212,1.0,1.0,71,0.00,,,0.00,Wunderground v.1.15,2013-01-25 23:20:00,
2013-01-25 17:25:00,69.4,60.0,30.13,WNW,284,1.0,2.0,72,0.00,,,0.00,Wunderground v.1.15,2013-01-25 23:25:00,
2013-01-25 17:30:00,69.0,60.0,30.13,SSW,200,0.0,2.0,73,0.00,,,0.00,Wunderground v.1.15,2013-01-25 23:30:00,
2013-01-25 17:35:00,68.4,59.8,30.13,SSW,200,0.0,2.0,74,0.00,,,0.00,Wunderground v.1.15,2013-01-25 23:35:00,
2013-01-25 17:40:00,67.9,59.7,30.13,SSW,200,0.0,2.0,75,0.00,,,0.00,Wunderground v.1.15,2013-01-25 23:40:00,
2013-01-25 17:45:00,67.5,59.7,30.13,West,262,0.0,2.0,76,0.00,,,0.00,Wunderground v.1.15,2013-01-25 23:45:00,
2013-01-25 17:50:00,67.2,59.4,30.13,West,263,0.0,2.0,76,0.00,,,0.00,Wunderground v.1.15,2013-01-25 23:50:00,
2013-01-25 17:55:00,66.9,59.5,30.13,NE,56,0.0,2.0,77,0.00,,,0.00,Wunderground v.1.15,2013-01-25 23:55:00,
2013-01-25 18:00:00,66.6,59.5,30.13,South,173,0.0,2.0,78,0.00,,,0.00,Wunderground v.1.15,2013-01-26 00:00:00,
2013-01-25 18:05:00,66.3,59.2,30.14,SSW,200,0.0,2.0,78,0.00,,,0.00,Wunderground v.1.15,2013-01-26 00:05:00,
2013-01-25 18:10:00,66.1,59.4,30.14,SSW,203,0.0,2.0,79,0.00,,,0.00,Wunderground v.1.15,2013-01-26 00:10:00,
2013-01-25 18:15:00,65.8,59.1,30.14,SSW,203,0.0,2.0,79,0.00,,,0.00,Wunderground v.1.15,2013-01-26 00:15:00,
2013-01-25 18:20:00,65.5,59.2,30.14,WSW,238,0.0,2.0,80,0.00,,,0.00,Wunderground v.1.15,2013-01-26 00:20:00,
2013-01-25 18:25:00,65.7,59.4,30.14,SSW,212,0.0,2.0,80,0.00,,,0.00,Wunderground v.1.15,2013-01-26 00:25:00,
2013-01-25 18:30:00,65.7,59.4,30.14,SSW,203,0.0,2.0,80,0.00,,,0.00,Wunderground v.1.15,2013-01-26 00:30:00,
2013-01-25 18:35:00,65.5,59.5,30.14,SSW,212,0.0,2.0,81,0.00,,,0.00,Wunderground v.1.15,2013-01-26 00:35:00,
2013-01-25 18:45:00,64.9,59.3,30.14,SSW,212,0.0,2.0,82,0.00,,,0.00,Wunderground v.1.15,2013-01-26 00:45:00,
2013-01-25 18:50:00,64.5,59.2,30.14,SSW,212,0.0,2.0,83,0.00,,,0.00,Wunderground v.1.15,2013-01-26 00:50:00,
2013-01-25 18:55:00,64.1,58.8,30.14,SSW,212,0.0,2.0,83,0.00,,,0.00,Wunderground v.1.15,2013-01-26 00:55:00,
2013-01-25 19:00:00,63.8,58.9,30.14,SSW,212,0.0,2.0,84,0.00,,,0.00,Wunderground v.1.15,2013-01-26 01:00:00,
2013-01-25 19:05:00,63.6,59.0,30.14,SSW,205,0.0,2.0,85,0.00,,,0.00,Wunderground v.1.15,2013-01-26 01:05:00,
2013-01-25 19:10:00,63.5,58.9,30.14,SSW,207,0.0,2.0,85,0.00,,,0.00,Wunderground v.1.15,2013-01-26 01:10:00,
2013-01-25 19:15:00,63.3,58.7,30.14,SSW,207,0.0,2.0,85,0.00,,,0.00,Wunderground v.1.15,2013-01-26 01:15:00,
2013-01-25 19:20:00,62.9,58.6,30.14,SSW,208,0.0,2.0,86,0.00,,,0.00,Wunderground v.1.15,2013-01-26 01:20:00,
2013-01-25 19:25:00,62.6,58.4,30.14,SSW,208,0.0,2.0,86,0.00,,,0.00,Wunderground v.1.15,2013-01-26 01:25:00,
2013-01-25 19:30:00,62.2,58.3,30.14,SSW,207,0.0,2.0,87,0.00,,,0.00,Wunderground v.1.15,2013-01-26 01:30:00,
2013-01-25 19:35:00,61.9,58.3,30.14,SSW,207,0.0,2.0,88,0.00,,,0.00,Wunderground v.1.15,2013-01-26 01:35:00,
2013-01-25 19:40:00,61.7,58.4,30.14,SSW,208,0.0,2.0,89,0.00,,,0.00,Wunderground v.1.15,2013-01-26 01:40:00,
2013-01-25 19:50:00,61.4,58.1,30.15,SSW,208,0.0,2.0,89,0.00,,,0.00,Wunderground v.1.15,2013-01-26 01:50:00,
2013-01-25 19:55:00,61.1,57.8,30.14,SSW,207,0.0,2.0,89,0.00,,,0.00,Wunderground v.1.15,2013-01-26 01:55:00,
2013-01-25 20:00:00,60.8,57.8,30.14,SSW,207,0.0,2.0,90,0.00,,,0.00,Wunderground v.1.15,2013-01-26 02:00:00,
2013-01-25 20:05:00,60.6,58.0,30.14,SSW,209,0.0,2.0,91,0.00,,,0.00,Wunderground v.1.15,2013-01-26 02:05:00,
2013-01-25 20:10:00,60.4,57.8,30.14,SSW,208,0.0,2.0,91,0.00,,,0.00,Wunderground v.1.15,2013-01-26 02:10:00,
2013-01-25 20:15:00,60.3,58.0,30.15,SSW,207,0.0,2.0,92,0.00,,,0.00,Wunderground v.1.15,2013-01-26 02:15:00,
2013-01-25 20:20:00,60.1,57.8,30.15,SSW,208,0.0,2.0,92,0.00,,,0.00,Wunderground v.1.15,2013-01-26 02:20:00,
2013-01-25 20:25:00,59.8,57.5,30.15,SSW,209,0.0,2.0,92,0.00,,,0.00,Wunderground v.1.15,2013-01-26 02:25:00,
2013-01-25 20:30:00,59.5,57.5,30.15,SSW,208,0.0,2.0,93,0.00,,,0.00,Wunderground v.1.15,2013-01-26 02:30:00,
2013-01-25 20:35:00,59.4,57.4,30.16,SSW,208,0.0,2.0,93,0.00,,,0.00,Wunderground v.1.15,2013-01-26 02:35:00,
2013-01-25 20:40:00,59.3,57.3,30.16,SSW,209,0.0,2.0,93,0.00,,,0.00,Wunderground v.1.15,2013-01-26 02:40:00,
2013-01-25 20:45:00,59.2,57.5,30.16,SSW,208,0.0,2.0,94,0.00,,,0.00,Wunderground v.1.15,2013-01-26 02:45:00,
2013-01-25 20:50:00,59.0,57.3,30.16,SSW,208,0.0,2.0,94,0.00,,,0.00,Wunderground v.1.15,2013-01-26 02:50:00,
2013-01-25 20:55:00,59.0,57.6,30.16,SSW,207,0.0,2.0,95,0.00,,,0.00,Wunderground v.1.15,2013-01-26 02:55:00,
2013-01-25 21:00:00,59.1,57.7,30.17,SSW,207,0.0,2.0,95,0.00,,,0.00,Wunderground v.1.15,2013-01-26 03:00:00,
2013-01-25 21:05:00,59.2,58.1,30.17,SSW,208,0.0,2.0,96,0.00,,,0.00,Wunderground v.1.15,2013-01-26 03:05:00,
2013-01-25 21:10:00,59.1,57.7,30.17,SSW,209,0.0,2.0,95,0.00,,,0.00,Wunderground v.1.15,2013-01-26 03:10:00,
2013-01-25 21:15:00,58.9,57.5,30.17,SSW,209,0.0,2.0,95,0.00,,,0.00,Wunderground v.1.15,2013-01-26 03:15:00,
2013-01-25 21:20:00,58.8,57.4,30.17,SSW,208,0.0,2.0,95,0.00,,,0.00,Wunderground v.1.15,2013-01-26 03:20:00,
2013-01-25 21:25:00,58.9,57.8,30.17,SSW,207,0.0,2.0,96,0.00,,,0.00,Wunderground v.1.15,2013-01-26 03:25:00,
2013-01-25 21:30:00,59.1,58.0,30.18,SSW,207,0.0,2.0,96,0.00,,,0.00,Wunderground v.1.15,2013-01-26 03:30:00,
2013-01-25 21:35:00,59.1,58.0,30.18,SSW,209,0.0,2.0,96,0.00,,,0.00,Wunderground v.1.15,2013-01-26 03:35:00,
2013-01-25 21:40:00,59.1,58.0,30.18,SSW,209,0.0,2.0,96,0.00,,,0.00,Wunderground v.1.15,2013-01-26 03:40:00,
2013-01-25 21:45:00,59.2,58.1,30.18,SSW,207,0.0,2.0,96,0.00,,,0.00,Wunderground v.1.15,2013-01-26 03:45:00,
2013-01-25 21:50:00,59.2,58.1,30.18,SSW,208,0.0,2.0,96,0.00,,,0.00,Wunderground v.1.15,2013-01-26 03:50:00,
2013-01-25 21:55:00,59.3,58.2,30.17,SSW,207,0.0,2.0,96,0.00,,,0.00,Wunderground v.1.15,2013-01-26 03:55:00,
2013-01-25 22:00:00,59.3,58.2,30.17,SSW,207,0.0,2.0,96,0.00,,,0.00,Wunderground v.1.15,2013-01-26 04:00:00,
2013-01-25 22:05:00,59.3,58.2,30.17,SSW,207,0.0,2.0,96,0.00,,,0.00,Wunderground v.1.15,2013-01-26 04:05:00,
2013-01-25 22:10:00,59.1,58.0,30.18,SSW,207,0.0,2.0,96,0.00,,,0.00,Wunderground v.1.15,2013-01-26 04:10:00,
2013-01-25 22:15:00,59.0,57.9,30.17,SSW,207,0.0,2.0,96,0.00,,,0.00,Wunderground v.1.15,2013-01-26 04:15:00,
2013-01-25 22:20:00,58.7,57.6,30.17,SSW,206,0.0,2.0,96,0.00,,,0.00,Wunderground v.1.15,2013-01-26 04:20:00,
2013-01-25 22:25:00,58.4,57.0,30.17,SSW,207,0.0,2.0,95,0.00,,,0.00,Wunderground v.1.15,2013-01-26 04:25:00,
2013-01-25 22:30:00,58.1,56.7,30.18,SSW,207,0.0,2.0,95,0.00,,,0.00,Wunderground v.1.15,2013-01-26 04:30:00,
2013-01-25 22:35:00,58.0,56.9,30.18,SSW,207,0.0,2.0,96,0.00,,,0.00,Wunderground v.1.15,2013-01-26 04:35:00,
2013-01-25 22:40:00,57.8,56.7,30.18,SSW,207,0.0,2.0,96,0.00,,,0.00,Wunderground v.1.15,2013-01-26 04:40:00,
2013-01-25 22:45:00,57.4,56.3,30.18,SSW,207,0.0,2.0,96,0.00,,,0.00,Wunderground v.1.15,2013-01-26 04:45:00,
2013-01-25 22:50:00,57.1,56.0,30.18,SSW,207,0.0,2.0,96,0.00,,,0.00,Wunderground v.1.15,2013-01-26 04:50:00,
2013-01-25 22:55:00,56.8,55.7,30.18,SSW,207,0.0,2.0,96,0.00,,,0.00,Wunderground v.1.15,2013-01-26 04:55:00,
2013-01-25 23:05:00,56.5,55.4,30.18,SSW,207,0.0,2.0,96,0.00,,,0.00,Wunderground v.1.15,2013-01-26 05:05:00,
2013-01-25 23:10:00,56.4,55.3,30.18,SSW,207,0.0,2.0,96,0.00,,,0.00,Wunderground v.1.15,2013-01-26 05:10:00,
2013-01-25 23:15:00,56.4,55.6,30.18,SSW,207,0.0,2.0,97,0.00,,,0.00,Wunderground v.1.15,2013-01-26 05:15:00,
2013-01-25 23:20:00,56.5,55.7,30.18,SSW,207,0.0,2.0,97,0.00,,,0.00,Wunderground v.1.15,2013-01-26 05:20:00,
2013-01-25 23:25:00,56.5,55.7,30.18,SSW,207,0.0,2.0,97,0.00,,,0.00,Wunderground v.1.15,2013-01-26 05:25:00,
2013-01-25 23:30:00,56.5,55.7,30.18,SSW,207,0.0,2.0,97,0.00,,,0.00,Wunderground v.1.15,2013-01-26 05:30:00,
2013-01-25 23:35:00,56.7,56.1,30.18,SSW,207,0.0,2.0,98,0.00,,,0.00,Wunderground v.1.15,2013-01-26 05:35:00,
2013-01-25 23:40:00,56.8,56.2,30.18,SSW,207,0.0,2.0,98,0.00,,,0.00,Wunderground v.1.15,2013-01-26 05:40:00,
2013-01-25 23:45:00,56.7,55.9,30.18,SSW,207,0.0,2.0,97,0.00,,,0.00,Wunderground v.1.15,2013-01-26 05:45:00,
2013-01-25 23:50:00,56.6,55.8,30.18,SSW,207,0.0,2.0,97,0.00,,,0.00,Wunderground v.1.15,2013-01-26 05:50:00,
2013-01-25 23:55:00,56.8,56.2,30.18,SSW,207,0.0,2.0,98,0.00,,,0.00,Wunderground v.1.15,2013-01-26 05:55:00,